sensor_id;sensor_type;location;lat;lon;timestamp;P1;durP1;ratioP1;P2;durP2;ratioP2
45274;SDS011;31019;43.780;25.948;2022-10-16T00:00:36;46.97;;;42.53;;
45274;SDS011;31019;43.780;25.948;2022-10-16T00:03:05;46.65;;;42.55;;
45274;SDS011;31019;43.780;25.948;2022-10-16T00:05:32;48.63;;;44.03;;
45274;SDS011;31019;43.780;25.948;2022-10-16T00:08:01;49.45;;;44.38;;
45274;SDS011;31019;43.780;25.948;2022-10-16T00:10:27;45.85;;;41.83;;
45274;SDS011;31019;43.780;25.948;2022-10-16T00:12:55;47.78;;;43.35;;
45274;SDS011;31019;43.780;25.948;2022-10-16T00:15:22;50.17;;;45.28;;
45274;SDS011;31019;43.780;25.948;2022-10-16T00:17:48;45.95;;;40.83;;
45274;SDS011;31019;43.780;25.948;2022-10-16T00:20:15;49.42;;;45.00;;
45274;SDS011;31019;43.780;25.948;2022-10-16T00:22:42;57.53;;;46.42;;
45274;SDS011;31019;43.780;25.948;2022-10-16T00:25:10;47.22;;;42.22;;
45274;SDS011;31019;43.780;25.948;2022-10-16T00:27:37;42.83;;;38.78;;
45274;SDS011;31019;43.780;25.948;2022-10-16T00:30:04;47.78;;;43.63;;
45274;SDS011;31019;43.780;25.948;2022-10-16T00:32:33;52.20;;;46.58;;
45274;SDS011;31019;43.780;25.948;2022-10-16T00:35:00;52.63;;;46.88;;
45274;SDS011;31019;43.780;25.948;2022-10-16T00:37:28;49.17;;;44.22;;
45274;SDS011;31019;43.780;25.948;2022-10-16T00:39:55;46.42;;;41.85;;
45274;SDS011;31019;43.780;25.948;2022-10-16T00:42:23;45.38;;;41.17;;
45274;SDS011;31019;43.780;25.948;2022-10-16T00:44:51;48.53;;;43.78;;
45274;SDS011;31019;43.780;25.948;2022-10-16T00:47:22;49.95;;;44.65;;
45274;SDS011;31019;43.780;25.948;2022-10-16T00:52:22;48.03;;;43.80;;
45274;SDS011;31019;43.780;25.948;2022-10-16T00:54:49;50.28;;;45.28;;
45274;SDS011;31019;43.780;25.948;2022-10-16T00:57:17;51.03;;;46.30;;
45274;SDS011;31019;43.780;25.948;2022-10-16T00:59:46;45.50;;;41.55;;
45274;SDS011;31019;43.780;25.948;2022-10-16T01:02:14;45.83;;;42.03;;
45274;SDS011;31019;43.780;25.948;2022-10-16T01:04:44;43.78;;;40.10;;
45274;SDS011;31019;43.780;25.948;2022-10-16T01:07:13;45.00;;;41.00;;
45274;SDS011;31019;43.780;25.948;2022-10-16T01:09:51;44.60;;;40.35;;
45274;SDS011;31019;43.780;25.948;2022-10-16T01:12:30;54.15;;;48.90;;
45274;SDS011;31019;43.780;25.948;2022-10-16T01:15:07;53.90;;;49.58;;
45274;SDS011;31019;43.780;25.948;2022-10-16T01:17:39;46.00;;;42.08;;
45274;SDS011;31019;43.780;25.948;2022-10-16T01:20:13;43.63;;;39.72;;
45274;SDS011;31019;43.780;25.948;2022-10-16T01:22:54;46.20;;;42.50;;
45274;SDS011;31019;43.780;25.948;2022-10-16T01:25:30;44.10;;;40.50;;
45274;SDS011;31019;43.780;25.948;2022-10-16T01:28:08;43.08;;;39.63;;
45274;SDS011;31019;43.780;25.948;2022-10-16T01:30:37;42.50;;;39.10;;
45274;SDS011;31019;43.780;25.948;2022-10-16T01:33:08;46.70;;;42.72;;
45274;SDS011;31019;43.780;25.948;2022-10-16T01:35:41;41.65;;;38.03;;
45274;SDS011;31019;43.780;25.948;2022-10-16T01:38:12;43.00;;;39.15;;
45274;SDS011;31019;43.780;25.948;2022-10-16T01:40:45;56.28;;;51.13;;
45274;SDS011;31019;43.780;25.948;2022-10-16T01:43:19;63.90;;;47.05;;
45274;SDS011;31019;43.780;25.948;2022-10-16T01:45:51;51.00;;;45.75;;
45274;SDS011;31019;43.780;25.948;2022-10-16T01:48:19;61.00;;;45.42;;
45274;SDS011;31019;43.780;25.948;2022-10-16T01:50:50;51.75;;;46.47;;
45274;SDS011;31019;43.780;25.948;2022-10-16T01:55:48;51.28;;;46.72;;
45274;SDS011;31019;43.780;25.948;2022-10-16T01:58:20;46.38;;;41.92;;
45274;SDS011;31019;43.780;25.948;2022-10-16T02:00:50;56.92;;;46.13;;
45274;SDS011;31019;43.780;25.948;2022-10-16T02:03:19;59.47;;;45.42;;
45274;SDS011;31019;43.780;25.948;2022-10-16T02:05:48;53.42;;;44.55;;
45274;SDS011;31019;43.780;25.948;2022-10-16T02:08:17;48.13;;;43.75;;
45274;SDS011;31019;43.780;25.948;2022-10-16T02:10:44;47.97;;;43.13;;
45274;SDS011;31019;43.780;25.948;2022-10-16T02:13:12;49.13;;;44.85;;
45274;SDS011;31019;43.780;25.948;2022-10-16T02:15:44;50.58;;;45.72;;
45274;SDS011;31019;43.780;25.948;2022-10-16T02:18:11;47.45;;;43.03;;
45274;SDS011;31019;43.780;25.948;2022-10-16T02:20:40;50.50;;;46.03;;
45274;SDS011;31019;43.780;25.948;2022-10-16T02:23:17;47.65;;;42.15;;
45274;SDS011;31019;43.780;25.948;2022-10-16T02:25:50;44.28;;;39.72;;
45274;SDS011;31019;43.780;25.948;2022-10-16T02:28:22;45.38;;;40.88;;
45274;SDS011;31019;43.780;25.948;2022-10-16T02:30:56;49.50;;;44.50;;
45274;SDS011;31019;43.780;25.948;2022-10-16T02:33:26;54.72;;;47.35;;
45274;SDS011;31019;43.780;25.948;2022-10-16T02:35:54;50.90;;;45.55;;
45274;SDS011;31019;43.780;25.948;2022-10-16T02:38:22;50.30;;;45.08;;
45274;SDS011;31019;43.780;25.948;2022-10-16T02:40:51;53.03;;;47.25;;
45274;SDS011;31019;43.780;25.948;2022-10-16T02:43:18;50.90;;;45.33;;
45274;SDS011;31019;43.780;25.948;2022-10-16T02:45:45;57.13;;;48.10;;
45274;SDS011;31019;43.780;25.948;2022-10-16T02:48:14;51.55;;;46.15;;
45274;SDS011;31019;43.780;25.948;2022-10-16T02:50:41;51.80;;;46.05;;
45274;SDS011;31019;43.780;25.948;2022-10-16T02:53:07;51.63;;;44.72;;
45274;SDS011;31019;43.780;25.948;2022-10-16T02:55:34;46.08;;;41.90;;
45274;SDS011;31019;43.780;25.948;2022-10-16T02:58:01;44.83;;;40.97;;
45274;SDS011;31019;43.780;25.948;2022-10-16T03:00:27;40.30;;;36.78;;
45274;SDS011;31019;43.780;25.948;2022-10-16T03:02:54;43.13;;;39.25;;
45274;SDS011;31019;43.780;25.948;2022-10-16T03:05:22;42.90;;;39.13;;
45274;SDS011;31019;43.780;25.948;2022-10-16T03:07:49;52.65;;;44.45;;
45274;SDS011;31019;43.780;25.948;2022-10-16T03:10:17;44.20;;;39.42;;
45274;SDS011;31019;43.780;25.948;2022-10-16T03:12:51;44.25;;;39.80;;
45274;SDS011;31019;43.780;25.948;2022-10-16T03:15:18;55.08;;;47.50;;
45274;SDS011;31019;43.780;25.948;2022-10-16T03:17:45;44.80;;;40.00;;
45274;SDS011;31019;43.780;25.948;2022-10-16T03:20:12;46.85;;;42.55;;
45274;SDS011;31019;43.780;25.948;2022-10-16T03:22:40;57.08;;;46.17;;
45274;SDS011;31019;43.780;25.948;2022-10-16T03:25:07;46.85;;;41.60;;
45274;SDS011;31019;43.780;25.948;2022-10-16T03:27:34;58.00;;;41.65;;
45274;SDS011;31019;43.780;25.948;2022-10-16T03:30:01;47.65;;;39.70;;
45274;SDS011;31019;43.780;25.948;2022-10-16T03:32:28;43.83;;;38.83;;
45274;SDS011;31019;43.780;25.948;2022-10-16T03:34:54;51.22;;;41.38;;
45274;SDS011;31019;43.780;25.948;2022-10-16T03:37:22;66.90;;;46.95;;
45274;SDS011;31019;43.780;25.948;2022-10-16T03:39:50;49.95;;;43.05;;
45274;SDS011;31019;43.780;25.948;2022-10-16T03:42:17;73.47;;;50.60;;
45274;SDS011;31019;43.780;25.948;2022-10-16T03:44:43;78.68;;;47.55;;
45274;SDS011;31019;43.780;25.948;2022-10-16T03:47:10;44.67;;;40.22;;
45274;SDS011;31019;43.780;25.948;2022-10-16T03:49:37;41.45;;;37.88;;
45274;SDS011;31019;43.780;25.948;2022-10-16T03:52:04;44.42;;;40.25;;
45274;SDS011;31019;43.780;25.948;2022-10-16T03:54:30;58.47;;;42.72;;
45274;SDS011;31019;43.780;25.948;2022-10-16T03:56:58;47.30;;;41.83;;
45274;SDS011;31019;43.780;25.948;2022-10-16T03:59:25;43.60;;;38.88;;
45274;SDS011;31019;43.780;25.948;2022-10-16T04:01:52;46.33;;;41.20;;
45274;SDS011;31019;43.780;25.948;2022-10-16T04:04:19;60.97;;;43.10;;
45274;SDS011;31019;43.780;25.948;2022-10-16T04:06:45;71.55;;;45.88;;
45274;SDS011;31019;43.780;25.948;2022-10-16T04:09:12;86.03;;;48.95;;
45274;SDS011;31019;43.780;25.948;2022-10-16T04:11:39;46.83;;;41.15;;
45274;SDS011;31019;43.780;25.948;2022-10-16T04:14:07;54.28;;;42.72;;
45274;SDS011;31019;43.780;25.948;2022-10-16T04:16:34;55.85;;;48.35;;
45274;SDS011;31019;43.780;25.948;2022-10-16T04:19:01;47.25;;;43.05;;
45274;SDS011;31019;43.780;25.948;2022-10-16T04:21:27;90.00;;;49.50;;
45274;SDS011;31019;43.780;25.948;2022-10-16T04:23:54;59.40;;;45.45;;
45274;SDS011;31019;43.780;25.948;2022-10-16T04:26:21;59.22;;;43.15;;
45274;SDS011;31019;43.780;25.948;2022-10-16T04:28:48;52.38;;;42.00;;
45274;SDS011;31019;43.780;25.948;2022-10-16T04:31:16;45.20;;;40.88;;
45274;SDS011;31019;43.780;25.948;2022-10-16T04:33:42;49.00;;;44.10;;
45274;SDS011;31019;43.780;25.948;2022-10-16T04:36:09;46.40;;;41.40;;
45274;SDS011;31019;43.780;25.948;2022-10-16T04:38:36;61.40;;;44.75;;
45274;SDS011;31019;43.780;25.948;2022-10-16T04:41:04;54.92;;;48.45;;
45274;SDS011;31019;43.780;25.948;2022-10-16T04:43:31;59.25;;;50.10;;
45274;SDS011;31019;43.780;25.948;2022-10-16T04:45:58;62.88;;;45.85;;
45274;SDS011;31019;43.780;25.948;2022-10-16T04:48:27;52.95;;;45.47;;
45274;SDS011;31019;43.780;25.948;2022-10-16T04:50:53;44.92;;;40.42;;
45274;SDS011;31019;43.780;25.948;2022-10-16T04:53:20;42.38;;;38.75;;
45274;SDS011;31019;43.780;25.948;2022-10-16T04:55:47;42.92;;;38.95;;
45274;SDS011;31019;43.780;25.948;2022-10-16T04:58:14;46.67;;;41.38;;
45274;SDS011;31019;43.780;25.948;2022-10-16T05:00:41;44.92;;;40.55;;
45274;SDS011;31019;43.780;25.948;2022-10-16T05:03:07;49.08;;;42.70;;
45274;SDS011;31019;43.780;25.948;2022-10-16T05:05:36;47.35;;;42.72;;
45274;SDS011;31019;43.780;25.948;2022-10-16T05:08:02;46.28;;;42.20;;
45274;SDS011;31019;43.780;25.948;2022-10-16T05:10:29;45.60;;;41.22;;
45274;SDS011;31019;43.780;25.948;2022-10-16T05:12:56;43.63;;;39.28;;
45274;SDS011;31019;43.780;25.948;2022-10-16T05:15:23;42.80;;;39.17;;
45274;SDS011;31019;43.780;25.948;2022-10-16T05:17:52;44.42;;;40.05;;
45274;SDS011;31019;43.780;25.948;2022-10-16T05:20:19;45.55;;;41.20;;
45274;SDS011;31019;43.780;25.948;2022-10-16T05:22:47;52.47;;;47.78;;
45274;SDS011;31019;43.780;25.948;2022-10-16T05:25:14;48.33;;;43.95;;
45274;SDS011;31019;43.780;25.948;2022-10-16T05:27:41;44.35;;;40.05;;
45274;SDS011;31019;43.780;25.948;2022-10-16T05:30:08;42.47;;;38.63;;
45274;SDS011;31019;43.780;25.948;2022-10-16T05:32:35;44.60;;;40.90;;
45274;SDS011;31019;43.780;25.948;2022-10-16T05:35:02;52.75;;;48.22;;
45274;SDS011;31019;43.780;25.948;2022-10-16T05:37:29;51.13;;;46.78;;
45274;SDS011;31019;43.780;25.948;2022-10-16T05:39:58;45.58;;;41.80;;
45274;SDS011;31019;43.780;25.948;2022-10-16T05:42:25;44.97;;;41.28;;
45274;SDS011;31019;43.780;25.948;2022-10-16T05:44:51;44.95;;;41.33;;
45274;SDS011;31019;43.780;25.948;2022-10-16T05:47:18;46.25;;;42.47;;
45274;SDS011;31019;43.780;25.948;2022-10-16T05:49:46;46.33;;;42.00;;
45274;SDS011;31019;43.780;25.948;2022-10-16T05:52:12;45.90;;;41.83;;
45274;SDS011;31019;43.780;25.948;2022-10-16T05:54:39;43.08;;;39.50;;
45274;SDS011;31019;43.780;25.948;2022-10-16T05:57:07;42.97;;;39.63;;
45274;SDS011;31019;43.780;25.948;2022-10-16T05:59:34;44.42;;;40.95;;
45274;SDS011;31019;43.780;25.948;2022-10-16T06:02:01;45.35;;;41.85;;
45274;SDS011;31019;43.780;25.948;2022-10-16T06:04:28;45.65;;;41.85;;
45274;SDS011;31019;43.780;25.948;2022-10-16T06:06:57;43.15;;;39.75;;
45274;SDS011;31019;43.780;25.948;2022-10-16T06:09:25;41.35;;;38.65;;
45274;SDS011;31019;43.780;25.948;2022-10-16T06:11:52;42.75;;;39.88;;
45274;SDS011;31019;43.780;25.948;2022-10-16T06:14:20;42.92;;;39.72;;
45274;SDS011;31019;43.780;25.948;2022-10-16T06:16:47;42.72;;;39.47;;
45274;SDS011;31019;43.780;25.948;2022-10-16T06:19:14;44.28;;;40.83;;
45274;SDS011;31019;43.780;25.948;2022-10-16T06:21:41;43.15;;;39.80;;
45274;SDS011;31019;43.780;25.948;2022-10-16T06:24:08;55.00;;;48.58;;
45274;SDS011;31019;43.780;25.948;2022-10-16T06:26:35;77.63;;;52.72;;
45274;SDS011;31019;43.780;25.948;2022-10-16T06:29:03;39.97;;;37.20;;
45274;SDS011;31019;43.780;25.948;2022-10-16T06:31:32;40.97;;;37.70;;
45274;SDS011;31019;43.780;25.948;2022-10-16T06:33:59;39.40;;;36.70;;
45274;SDS011;31019;43.780;25.948;2022-10-16T06:36:26;43.35;;;40.25;;
45274;SDS011;31019;43.780;25.948;2022-10-16T06:38:53;40.65;;;37.80;;
45274;SDS011;31019;43.780;25.948;2022-10-16T06:41:21;40.75;;;37.65;;
45274;SDS011;31019;43.780;25.948;2022-10-16T06:43:49;40.47;;;37.67;;
45274;SDS011;31019;43.780;25.948;2022-10-16T06:46:18;43.00;;;39.60;;
45274;SDS011;31019;43.780;25.948;2022-10-16T06:48:47;42.60;;;39.58;;
45274;SDS011;31019;43.780;25.948;2022-10-16T06:51:15;55.50;;;50.50;;
45274;SDS011;31019;43.780;25.948;2022-10-16T06:53:44;43.92;;;40.17;;
45274;SDS011;31019;43.780;25.948;2022-10-16T06:56:12;48.22;;;43.60;;
45274;SDS011;31019;43.780;25.948;2022-10-16T06:58:41;44.67;;;40.88;;
45274;SDS011;31019;43.780;25.948;2022-10-16T07:01:09;42.60;;;39.40;;
45274;SDS011;31019;43.780;25.948;2022-10-16T07:03:36;40.65;;;37.65;;
45274;SDS011;31019;43.780;25.948;2022-10-16T07:06:06;46.78;;;42.22;;
45274;SDS011;31019;43.780;25.948;2022-10-16T07:08:34;41.38;;;38.45;;
45274;SDS011;31019;43.780;25.948;2022-10-16T07:11:02;40.95;;;37.70;;
45274;SDS011;31019;43.780;25.948;2022-10-16T07:13:32;46.03;;;41.88;;
45274;SDS011;31019;43.780;25.948;2022-10-16T07:16:03;42.45;;;39.25;;
45274;SDS011;31019;43.780;25.948;2022-10-16T07:18:30;42.05;;;38.65;;
45274;SDS011;31019;43.780;25.948;2022-10-16T07:21:02;44.50;;;40.67;;
45274;SDS011;31019;43.780;25.948;2022-10-16T07:23:31;43.38;;;39.67;;
45274;SDS011;31019;43.780;25.948;2022-10-16T07:25:58;43.17;;;39.88;;
45274;SDS011;31019;43.780;25.948;2022-10-16T07:28:25;44.60;;;41.40;;
45274;SDS011;31019;43.780;25.948;2022-10-16T07:30:52;45.22;;;41.33;;
45274;SDS011;31019;43.780;25.948;2022-10-16T07:33:19;42.83;;;39.83;;
45274;SDS011;31019;43.780;25.948;2022-10-16T07:35:49;44.17;;;40.42;;
45274;SDS011;31019;43.780;25.948;2022-10-16T07:38:20;43.85;;;40.40;;
45274;SDS011;31019;43.780;25.948;2022-10-16T07:40:58;45.05;;;41.42;;
45274;SDS011;31019;43.780;25.948;2022-10-16T07:43:27;43.75;;;40.10;;
45274;SDS011;31019;43.780;25.948;2022-10-16T07:45:56;45.38;;;41.72;;
45274;SDS011;31019;43.780;25.948;2022-10-16T07:48:23;43.60;;;40.28;;
45274;SDS011;31019;43.780;25.948;2022-10-16T07:50:56;43.20;;;39.65;;
45274;SDS011;31019;43.780;25.948;2022-10-16T07:53:25;47.22;;;42.75;;
45274;SDS011;31019;43.780;25.948;2022-10-16T07:55:56;44.83;;;41.45;;
45274;SDS011;31019;43.780;25.948;2022-10-16T07:58:23;43.97;;;40.60;;
45274;SDS011;31019;43.780;25.948;2022-10-16T08:00:50;43.50;;;40.03;;
45274;SDS011;31019;43.780;25.948;2022-10-16T08:03:20;44.45;;;40.85;;
45274;SDS011;31019;43.780;25.948;2022-10-16T08:05:47;44.97;;;41.53;;
45274;SDS011;31019;43.780;25.948;2022-10-16T08:08:14;45.85;;;42.45;;
45274;SDS011;31019;43.780;25.948;2022-10-16T08:10:43;44.30;;;40.80;;
45274;SDS011;31019;43.780;25.948;2022-10-16T08:13:10;43.38;;;40.47;;
45274;SDS011;31019;43.780;25.948;2022-10-16T08:15:39;45.28;;;42.00;;
45274;SDS011;31019;43.780;25.948;2022-10-16T08:18:12;44.22;;;40.55;;
45274;SDS011;31019;43.780;25.948;2022-10-16T08:21:00;44.08;;;40.72;;
45274;SDS011;31019;43.780;25.948;2022-10-16T08:23:27;47.60;;;43.60;;
45274;SDS011;31019;43.780;25.948;2022-10-16T08:25:56;46.35;;;42.72;;
45274;SDS011;31019;43.780;25.948;2022-10-16T08:28:30;44.97;;;41.65;;
45274;SDS011;31019;43.780;25.948;2022-10-16T08:31:04;46.33;;;42.75;;
45274;SDS011;31019;43.780;25.948;2022-10-16T08:33:37;44.75;;;41.65;;
45274;SDS011;31019;43.780;25.948;2022-10-16T08:36:05;47.88;;;43.97;;
45274;SDS011;31019;43.780;25.948;2022-10-16T08:38:46;48.53;;;45.08;;
45274;SDS011;31019;43.780;25.948;2022-10-16T08:48:54;43.63;;;40.83;;
45274;SDS011;31019;43.780;25.948;2022-10-16T08:52:03;43.60;;;40.10;;
45274;SDS011;31019;43.780;25.948;2022-10-16T08:54:31;41.42;;;38.42;;
45274;SDS011;31019;43.780;25.948;2022-10-16T09:03:03;44.72;;;41.42;;
45274;SDS011;31019;43.780;25.948;2022-10-16T09:05:56;44.83;;;41.65;;
45274;SDS011;31019;43.780;25.948;2022-10-16T09:08:35;42.45;;;39.15;;
45274;SDS011;31019;43.780;25.948;2022-10-16T09:11:11;43.28;;;39.55;;
45274;SDS011;31019;43.780;25.948;2022-10-16T09:13:50;43.53;;;40.40;;
45274;SDS011;31019;43.780;25.948;2022-10-16T09:16:29;42.03;;;38.92;;
45274;SDS011;31019;43.780;25.948;2022-10-16T09:19:09;42.35;;;39.10;;
45274;SDS011;31019;43.780;25.948;2022-10-16T09:21:55;42.03;;;38.97;;
45274;SDS011;31019;43.780;25.948;2022-10-16T09:24:29;42.10;;;38.75;;
45274;SDS011;31019;43.780;25.948;2022-10-16T09:27:35;40.95;;;38.15;;
45274;SDS011;31019;43.780;25.948;2022-10-16T09:30:13;41.60;;;38.55;;
45274;SDS011;31019;43.780;25.948;2022-10-16T09:32:48;40.92;;;37.65;;
45274;SDS011;31019;43.780;25.948;2022-10-16T09:35:39;41.80;;;38.60;;
45274;SDS011;31019;43.780;25.948;2022-10-16T09:38:30;42.45;;;39.65;;
45274;SDS011;31019;43.780;25.948;2022-10-16T09:41:02;42.78;;;39.55;;
45274;SDS011;31019;43.780;25.948;2022-10-16T09:43:49;42.20;;;39.33;;
45274;SDS011;31019;43.780;25.948;2022-10-16T09:46:38;41.22;;;38.05;;
45274;SDS011;31019;43.780;25.948;2022-10-16T09:49:21;41.38;;;38.58;;
45274;SDS011;31019;43.780;25.948;2022-10-16T09:51:50;40.93;;;37.70;;
45274;SDS011;31019;43.780;25.948;2022-10-16T09:54:21;41.25;;;38.22;;
45274;SDS011;31019;43.780;25.948;2022-10-16T09:56:48;41.50;;;38.10;;
45274;SDS011;31019;43.780;25.948;2022-10-16T09:59:21;40.92;;;37.92;;
45274;SDS011;31019;43.780;25.948;2022-10-16T10:01:54;40.05;;;36.92;;
45274;SDS011;31019;43.780;25.948;2022-10-16T10:04:22;40.10;;;36.95;;
45274;SDS011;31019;43.780;25.948;2022-10-16T10:07:00;40.15;;;37.28;;
45274;SDS011;31019;43.780;25.948;2022-10-16T10:09:28;39.35;;;36.03;;
45274;SDS011;31019;43.780;25.948;2022-10-16T10:11:58;41.90;;;38.47;;
45274;SDS011;31019;43.780;25.948;2022-10-16T10:14:27;41.80;;;37.95;;
45274;SDS011;31019;43.780;25.948;2022-10-16T10:17:07;41.30;;;38.40;;
45274;SDS011;31019;43.780;25.948;2022-10-16T10:19:40;42.22;;;39.35;;
45274;SDS011;31019;43.780;25.948;2022-10-16T10:22:30;41.75;;;38.90;;
45274;SDS011;31019;43.780;25.948;2022-10-16T10:25:00;40.97;;;37.90;;
45274;SDS011;31019;43.780;25.948;2022-10-16T10:27:46;42.60;;;39.38;;
45274;SDS011;31019;43.780;25.948;2022-10-16T10:30:32;42.20;;;39.17;;
45274;SDS011;31019;43.780;25.948;2022-10-16T10:33:16;41.25;;;38.25;;
45274;SDS011;31019;43.780;25.948;2022-10-16T10:35:53;41.20;;;38.10;;
45274;SDS011;31019;43.780;25.948;2022-10-16T10:38:37;39.50;;;36.47;;
45274;SDS011;31019;43.780;25.948;2022-10-16T10:41:19;41.03;;;38.03;;
45274;SDS011;31019;43.780;25.948;2022-10-16T10:44:01;41.53;;;38.45;;
45274;SDS011;31019;43.780;25.948;2022-10-16T10:46:34;40.63;;;37.83;;
45274;SDS011;31019;43.780;25.948;2022-10-16T10:49:16;39.25;;;36.17;;
45274;SDS011;31019;43.780;25.948;2022-10-16T10:51:57;39.38;;;36.38;;
45274;SDS011;31019;43.780;25.948;2022-10-16T10:54:35;39.33;;;36.22;;
45274;SDS011;31019;43.780;25.948;2022-10-16T10:57:09;39.67;;;36.72;;
45274;SDS011;31019;43.780;25.948;2022-10-16T11:00:02;40.85;;;37.55;;
45274;SDS011;31019;43.780;25.948;2022-10-16T11:02:48;41.08;;;38.13;;
45274;SDS011;31019;43.780;25.948;2022-10-16T11:05:25;40.47;;;37.58;;
45274;SDS011;31019;43.780;25.948;2022-10-16T11:08:03;41.10;;;37.90;;
45274;SDS011;31019;43.780;25.948;2022-10-16T11:10:40;40.10;;;37.05;;
45274;SDS011;31019;43.780;25.948;2022-10-16T11:13:15;40.10;;;36.97;;
45274;SDS011;31019;43.780;25.948;2022-10-16T11:15:52;41.30;;;38.30;;
45274;SDS011;31019;43.780;25.948;2022-10-16T11:18:24;40.15;;;36.95;;
45274;SDS011;31019;43.780;25.948;2022-10-16T11:20:59;40.55;;;37.17;;
45274;SDS011;31019;43.780;25.948;2022-10-16T11:23:30;40.90;;;37.75;;
45274;SDS011;31019;43.780;25.948;2022-10-16T11:26:04;41.60;;;38.45;;
45274;SDS011;31019;43.780;25.948;2022-10-16T11:28:39;40.17;;;37.22;;
45274;SDS011;31019;43.780;25.948;2022-10-16T11:31:14;42.88;;;39.75;;
45274;SDS011;31019;43.780;25.948;2022-10-16T11:33:46;43.75;;;40.65;;
45274;SDS011;31019;43.780;25.948;2022-10-16T11:36:22;40.35;;;37.40;;
45274;SDS011;31019;43.780;25.948;2022-10-16T11:38:55;43.25;;;39.97;;
45274;SDS011;31019;43.780;25.948;2022-10-16T11:41:27;40.88;;;37.58;;
45274;SDS011;31019;43.780;25.948;2022-10-16T11:44:14;40.88;;;37.67;;
45274;SDS011;31019;43.780;25.948;2022-10-16T11:47:01;40.17;;;36.88;;
45274;SDS011;31019;43.780;25.948;2022-10-16T11:49:34;40.42;;;36.95;;
45274;SDS011;31019;43.780;25.948;2022-10-16T11:52:05;40.45;;;37.35;;
45274;SDS011;31019;43.780;25.948;2022-10-16T11:54:39;41.35;;;37.92;;
45274;SDS011;31019;43.780;25.948;2022-10-16T11:57:12;40.03;;;36.60;;
45274;SDS011;31019;43.780;25.948;2022-10-16T11:59:45;40.70;;;37.60;;
45274;SDS011;31019;43.780;25.948;2022-10-16T12:02:25;42.80;;;38.95;;
45274;SDS011;31019;43.780;25.948;2022-10-16T12:05:01;41.72;;;38.35;;
45274;SDS011;31019;43.780;25.948;2022-10-16T12:07:41;41.15;;;38.10;;
45274;SDS011;31019;43.780;25.948;2022-10-16T12:10:22;40.53;;;37.40;;
45274;SDS011;31019;43.780;25.948;2022-10-16T12:12:50;40.35;;;37.17;;
45274;SDS011;31019;43.780;25.948;2022-10-16T12:15:20;40.47;;;36.67;;
45274;SDS011;31019;43.780;25.948;2022-10-16T12:17:52;41.83;;;37.72;;
45274;SDS011;31019;43.780;25.948;2022-10-16T12:20:29;39.85;;;36.65;;
45274;SDS011;31019;43.780;25.948;2022-10-16T12:22:59;38.75;;;35.50;;
45274;SDS011;31019;43.780;25.948;2022-10-16T12:25:29;38.75;;;35.63;;
45274;SDS011;31019;43.780;25.948;2022-10-16T12:28:03;39.75;;;36.78;;
45274;SDS011;31019;43.780;25.948;2022-10-16T12:30:33;40.20;;;36.95;;
45274;SDS011;31019;43.780;25.948;2022-10-16T12:33:02;39.08;;;35.92;;
45274;SDS011;31019;43.780;25.948;2022-10-16T12:35:31;39.33;;;36.20;;
45274;SDS011;31019;43.780;25.948;2022-10-16T12:38:06;40.85;;;37.28;;
45274;SDS011;31019;43.780;25.948;2022-10-16T12:40:43;39.28;;;35.92;;
45274;SDS011;31019;43.780;25.948;2022-10-16T12:43:22;41.45;;;38.08;;
45274;SDS011;31019;43.780;25.948;2022-10-16T12:46:03;40.75;;;37.38;;
45274;SDS011;31019;43.780;25.948;2022-10-16T12:48:36;40.47;;;37.20;;
45274;SDS011;31019;43.780;25.948;2022-10-16T12:51:10;39.83;;;36.50;;
45274;SDS011;31019;43.780;25.948;2022-10-16T12:53:59;41.78;;;38.13;;
45274;SDS011;31019;43.780;25.948;2022-10-16T12:56:31;42.22;;;38.85;;
45274;SDS011;31019;43.780;25.948;2022-10-16T12:59:13;41.92;;;38.33;;
45274;SDS011;31019;43.780;25.948;2022-10-16T13:01:54;41.35;;;37.85;;
45274;SDS011;31019;43.780;25.948;2022-10-16T13:04:44;42.72;;;39.28;;
45274;SDS011;31019;43.780;25.948;2022-10-16T13:07:28;40.95;;;37.53;;
45274;SDS011;31019;43.780;25.948;2022-10-16T13:10:10;39.00;;;35.97;;
45274;SDS011;31019;43.780;25.948;2022-10-16T13:13:02;45.88;;;41.85;;
45274;SDS011;31019;43.780;25.948;2022-10-16T13:15:52;44.92;;;41.03;;
45274;SDS011;31019;43.780;25.948;2022-10-16T13:18:28;41.05;;;36.92;;
45274;SDS011;31019;43.780;25.948;2022-10-16T13:21:04;39.35;;;36.22;;
45274;SDS011;31019;43.780;25.948;2022-10-16T13:23:49;39.10;;;36.17;;
45274;SDS011;31019;43.780;25.948;2022-10-16T13:26:33;38.70;;;35.63;;
45274;SDS011;31019;43.780;25.948;2022-10-16T13:29:12;42.58;;;38.67;;
45274;SDS011;31019;43.780;25.948;2022-10-16T13:31:40;37.85;;;34.75;;
45274;SDS011;31019;43.780;25.948;2022-10-16T13:34:11;38.47;;;35.55;;
45274;SDS011;31019;43.780;25.948;2022-10-16T13:36:43;40.70;;;37.33;;
45274;SDS011;31019;43.780;25.948;2022-10-16T13:39:13;39.13;;;35.95;;
45274;SDS011;31019;43.780;25.948;2022-10-16T13:41:43;38.25;;;34.90;;
45274;SDS011;31019;43.780;25.948;2022-10-16T13:44:12;38.97;;;35.85;;
45274;SDS011;31019;43.780;25.948;2022-10-16T13:46:57;38.65;;;35.53;;
45274;SDS011;31019;43.780;25.948;2022-10-16T13:49:25;39.72;;;36.45;;
45274;SDS011;31019;43.780;25.948;2022-10-16T13:51:53;40.63;;;37.63;;
45274;SDS011;31019;43.780;25.948;2022-10-16T13:54:21;41.40;;;37.28;;
45274;SDS011;31019;43.780;25.948;2022-10-16T13:56:50;38.30;;;34.83;;
45274;SDS011;31019;43.780;25.948;2022-10-16T13:59:24;36.10;;;33.28;;
45274;SDS011;31019;43.780;25.948;2022-10-16T14:01:56;36.83;;;33.92;;
45274;SDS011;31019;43.780;25.948;2022-10-16T14:04:34;38.13;;;34.75;;
45274;SDS011;31019;43.780;25.948;2022-10-16T14:07:15;36.55;;;33.72;;
45274;SDS011;31019;43.780;25.948;2022-10-16T14:09:49;36.85;;;34.00;;
45274;SDS011;31019;43.780;25.948;2022-10-16T14:12:18;39.75;;;36.03;;
45274;SDS011;31019;43.780;25.948;2022-10-16T14:14:48;39.25;;;36.15;;
45274;SDS011;31019;43.780;25.948;2022-10-16T14:17:19;38.53;;;35.38;;
45274;SDS011;31019;43.780;25.948;2022-10-16T14:19:48;38.47;;;35.38;;
45274;SDS011;31019;43.780;25.948;2022-10-16T14:22:26;38.75;;;35.47;;
45274;SDS011;31019;43.780;25.948;2022-10-16T14:24:58;39.10;;;36.03;;
45274;SDS011;31019;43.780;25.948;2022-10-16T14:27:28;40.53;;;37.10;;
45274;SDS011;31019;43.780;25.948;2022-10-16T14:30:07;40.35;;;37.25;;
45274;SDS011;31019;43.780;25.948;2022-10-16T14:32:39;40.00;;;36.72;;
45274;SDS011;31019;43.780;25.948;2022-10-16T14:35:11;41.38;;;37.75;;
45274;SDS011;31019;43.780;25.948;2022-10-16T14:37:51;47.88;;;43.35;;
45274;SDS011;31019;43.780;25.948;2022-10-16T14:40:23;49.45;;;44.85;;
45274;SDS011;31019;43.780;25.948;2022-10-16T14:42:53;48.55;;;44.05;;
45274;SDS011;31019;43.780;25.948;2022-10-16T14:45:24;48.50;;;43.70;;
45274;SDS011;31019;43.780;25.948;2022-10-16T14:47:53;55.55;;;49.95;;
45274;SDS011;31019;43.780;25.948;2022-10-16T14:50:22;38.85;;;35.72;;
45274;SDS011;31019;43.780;25.948;2022-10-16T14:52:50;39.92;;;36.70;;